createdAt,value
2022-10-17T00:00:12.283Z,14.38
2022-10-17T00:02:42.912Z,14.40
2022-10-17T00:05:13.339Z,14.42
2022-10-17T00:07:43.744Z,14.42
2022-10-17T00:10:14.488Z,14.42
2022-10-17T00:12:45.177Z,14.41
2022-10-17T00:15:21.664Z,14.44
2022-10-17T00:17:51.957Z,14.47
2022-10-17T00:20:22.397Z,14.48
2022-10-17T00:22:53.088Z,14.49
2022-10-17T00:25:23.596Z,14.45
2022-10-17T00:27:54.015Z,14.42
2022-10-17T00:30:24.378Z,14.40
2022-10-17T00:32:54.643Z,14.36
2022-10-17T00:35:25.033Z,14.37
2022-10-17T00:37:55.551Z,14.42
2022-10-17T00:40:26.282Z,14.38
2022-10-17T00:42:56.607Z,14.36
2022-10-17T00:45:29.697Z,14.34
2022-10-17T00:48:06.126Z,14.36
2022-10-17T00:50:39.376Z,14.37
2022-10-17T00:53:10.824Z,14.42
2022-10-17T00:55:47.438Z,14.38
2022-10-17T00:58:18.981Z,14.42
2022-10-17T01:00:49.994Z,14.46
2022-10-17T01:03:20.379Z,14.50
2022-10-17T01:05:50.951Z,14.53
2022-10-17T01:08:21.443Z,14.54
2022-10-17T01:11:19.004Z,14.56
2022-10-17T01:13:52.468Z,14.46
2022-10-17T01:16:40.884Z,14.40
2022-10-17T01:19:29.305Z,14.33
2022-10-17T01:22:19.495Z,14.27
2022-10-17T01:25:18.437Z,14.24
2022-10-17T01:28:17.533Z,14.17
2022-10-17T01:31:06.026Z,14.10
2022-10-17T01:34:05.419Z,14.11
2022-10-17T01:36:41.390Z,14.16
2022-10-17T01:39:43.898Z,14.12
2022-10-17T01:42:24.263Z,14.12
2022-10-17T01:45:09.897Z,14.10
2022-10-17T01:47:42.629Z,14.03
2022-10-17T01:50:16.008Z,14.12
2022-10-17T01:52:49.469Z,14.04
2022-10-17T01:55:22.752Z,14.04
2022-10-17T01:57:56.046Z,14.06
2022-10-17T02:00:28.478Z,14.06
2022-10-17T02:03:02.306Z,14.00
2022-10-17T02:05:35.922Z,13.98
2022-10-17T02:08:06.835Z,13.95
2022-10-17T02:10:49.100Z,13.97
2022-10-17T02:13:42.147Z,13.90
2022-10-17T02:16:21.101Z,13.90
2022-10-17T02:19:09.562Z,14.04
2022-10-17T02:21:43.000Z,13.93
2022-10-17T02:24:21.983Z,13.91
2022-10-17T02:26:59.824Z,13.95
2022-10-17T02:29:33.197Z,14.04
2022-10-17T02:32:12.581Z,14.10
2022-10-17T02:34:48.334Z,14.22
2022-10-17T02:37:21.804Z,14.25
2022-10-17T02:39:52.720Z,14.34
2022-10-17T02:42:25.731Z,14.30
2022-10-17T02:44:58.396Z,14.28
2022-10-17T02:47:38.037Z,14.22
2022-10-17T02:50:08.959Z,14.20
2022-10-17T02:52:42.338Z,14.25
2022-10-17T02:55:18.930Z,14.24
2022-10-17T02:57:52.136Z,14.24
2022-10-17T03:00:24.484Z,14.22
2022-10-17T03:02:55.891Z,14.24
2022-10-17T03:05:29.441Z,14.19
2022-10-17T03:07:59.803Z,14.15
2022-10-17T03:10:30.187Z,14.18
2022-10-17T03:13:00.505Z,14.29
2022-10-17T03:15:30.907Z,14.21
2022-10-17T03:18:01.437Z,14.20
2022-10-17T03:20:31.840Z,14.19
2022-10-17T03:23:02.244Z,14.20
2022-10-17T03:25:32.842Z,14.22
2022-10-17T03:28:05.411Z,14.18
2022-10-17T03:30:35.775Z,14.20
2022-10-17T03:33:06.237Z,14.18
2022-10-17T03:35:40.387Z,14.16
2022-10-17T03:38:10.833Z,14.11
2022-10-17T03:40:41.174Z,14.11
2022-10-17T03:43:11.801Z,14.09
2022-10-17T03:45:42.254Z,14.09
2022-10-17T03:48:12.652Z,14.12
2022-10-17T03:50:43.041Z,14.06
2022-10-17T03:53:13.486Z,14.06
2022-10-17T03:55:43.855Z,14.08
2022-10-17T03:58:14.235Z,14.04
2022-10-17T04:00:44.646Z,14.05
2022-10-17T04:03:17.349Z,14.01
2022-10-17T04:05:47.195Z,14.04
2022-10-17T04:08:17.662Z,14.00
2022-10-17T04:10:48.080Z,13.98
2022-10-17T04:13:18.475Z,13.96
2022-10-17T04:15:56.341Z,13.95
2022-10-17T04:18:27.532Z,13.88
2022-10-17T04:20:58.007Z,13.88
2022-10-17T04:23:28.432Z,13.87
2022-10-17T04:26:00.584Z,13.87
2022-10-17T04:28:31.480Z,13.87
2022-10-17T04:31:05.406Z,13.84
2022-10-17T04:33:36.050Z,13.88
2022-10-17T04:36:09.402Z,13.80
2022-10-17T04:38:40.540Z,13.84
2022-10-17T04:41:14.011Z,13.83
2022-10-17T04:43:48.421Z,13.76
2022-10-17T04:46:17.026Z,13.74
2022-10-17T04:48:47.435Z,13.72
2022-10-17T04:51:21.845Z,13.71
2022-10-17T04:53:51.547Z,13.70
2022-10-17T04:56:27.212Z,13.70
2022-10-17T04:58:59.434Z,13.67
2022-10-17T05:01:29.801Z,13.69
2022-10-17T05:04:00.255Z,13.64
2022-10-17T05:06:31.622Z,13.65
2022-10-17T05:09:02.209Z,13.64
2022-10-17T05:11:32.589Z,13.67
2022-10-17T05:14:03.444Z,13.70
2022-10-17T05:16:33.773Z,13.69
2022-10-17T05:19:04.647Z,13.62
2022-10-17T05:21:36.613Z,13.72
2022-10-17T05:24:12.342Z,13.65
2022-10-17T05:26:42.756Z,13.61
2022-10-17T05:29:13.136Z,13.59
2022-10-17T05:31:43.540Z,13.60
2022-10-17T05:34:14.111Z,13.54
2022-10-17T05:36:44.694Z,13.57
2022-10-17T05:39:16.948Z,13.61
2022-10-17T05:41:47.914Z,13.58
2022-10-17T05:44:18.455Z,13.64
2022-10-17T05:46:52.122Z,13.65
2022-10-17T05:49:32.986Z,13.63
2022-10-17T05:51:54.682Z,13.61
2022-10-17T05:54:25.078Z,13.63
2022-10-17T05:56:56.456Z,13.72
2022-10-17T05:59:28.190Z,13.68
2022-10-17T06:01:58.946Z,13.66
2022-10-17T06:04:29.515Z,13.80
2022-10-17T06:06:59.894Z,13.82
2022-10-17T06:09:30.306Z,13.78
2022-10-17T06:12:00.728Z,13.83
2022-10-17T06:14:31.104Z,13.91
2022-10-17T06:17:02.716Z,13.89
2022-10-17T06:19:33.160Z,13.88
2022-10-17T06:22:03.485Z,13.94
2022-10-17T06:24:33.962Z,13.96
2022-10-17T06:27:09.357Z,14.01
2022-10-17T06:29:36.626Z,14.03
2022-10-17T06:32:09.920Z,14.06
2022-10-17T06:34:40.053Z,14.08
2022-10-17T06:37:10.625Z,14.08
2022-10-17T06:39:41.046Z,14.08
2022-10-17T06:42:11.459Z,14.18
2022-10-17T06:44:42.113Z,14.16
2022-10-17T06:47:15.434Z,14.19
2022-10-17T06:49:45.646Z,14.22
2022-10-17T06:52:17.035Z,14.18
2022-10-17T06:54:47.437Z,14.24
2022-10-17T06:57:17.769Z,14.22
2022-10-17T06:59:48.153Z,14.34
2022-10-17T07:02:18.665Z,14.30
2022-10-17T07:04:49.062Z,14.34
2022-10-17T07:07:19.453Z,14.37
2022-10-17T07:09:49.840Z,14.42
2022-10-17T07:12:20.249Z,14.58
2022-10-17T07:14:50.957Z,14.64
2022-10-17T07:17:21.283Z,14.70
2022-10-17T07:19:51.899Z,14.82
2022-10-17T07:22:22.237Z,14.88
2022-10-17T07:24:52.562Z,14.96
2022-10-17T07:27:22.960Z,14.92
2022-10-17T07:29:53.359Z,15.00
2022-10-17T07:32:23.718Z,15.10
2022-10-17T07:34:54.060Z,15.08
2022-10-17T07:37:24.525Z,15.14
2022-10-17T07:39:56.489Z,15.15
2022-10-17T07:42:28.381Z,15.28
2022-10-17T07:44:58.958Z,15.32
2022-10-17T07:47:31.428Z,15.40
2022-10-17T07:50:03.174Z,15.48
2022-10-17T07:52:33.757Z,15.50
2022-10-17T07:55:04.281Z,15.57
2022-10-17T07:57:34.597Z,15.75
2022-10-17T08:00:05.492Z,15.74
2022-10-17T08:02:35.795Z,15.78
2022-10-17T08:05:06.813Z,15.90
2022-10-17T08:07:37.204Z,15.93
2022-10-17T08:12:39.809Z,16.16
2022-10-17T08:15:11.199Z,16.26
2022-10-17T08:17:41.784Z,16.37
2022-10-17T08:20:13.323Z,16.56
2022-10-17T08:22:43.713Z,16.60
2022-10-17T08:25:14.002Z,16.87
2022-10-17T08:27:44.396Z,16.91
2022-10-17T08:30:14.804Z,17.04
2022-10-17T08:32:45.286Z,17.14
2022-10-17T08:35:15.670Z,17.16
2022-10-17T08:37:46.065Z,17.19
2022-10-17T08:40:25.854Z,17.24
2022-10-17T08:43:08.440Z,17.34
2022-10-17T08:45:54.005Z,17.49
2022-10-17T08:48:26.541Z,17.58
2022-10-17T08:51:18.176Z,17.69
2022-10-17T08:53:51.635Z,17.77
2022-10-17T08:56:47.607Z,17.88
2022-10-17T08:59:00.744Z,17.93
2022-10-17T09:01:41.003Z,18.07
2022-10-17T09:04:23.235Z,18.21
2022-10-17T09:07:08.504Z,18.26
2022-10-17T09:10:02.947Z,18.56
2022-10-17T09:12:39.171Z,19.05
2022-10-17T09:15:30.493Z,19.50
2022-10-17T09:18:17.577Z,20.25
2022-10-17T09:20:58.075Z,20.68
2022-10-17T09:23:42.434Z,21.38
2022-10-17T09:26:13.051Z,21.58
2022-10-17T09:28:44.642Z,21.40
2022-10-17T09:31:29.709Z,21.93
2022-10-17T09:34:02.996Z,22.36
2022-10-17T09:36:38.381Z,22.58
2022-10-17T09:39:23.369Z,23.16
2022-10-17T09:41:56.175Z,24.02
2022-10-17T09:44:35.144Z,24.12
2022-10-17T09:47:34.248Z,24.02
2022-10-17T09:50:06.298Z,23.48
2022-10-17T09:52:39.659Z,23.16
2022-10-17T09:55:33.038Z,23.25
2022-10-17T09:58:05.652Z,23.83
2022-10-17T10:00:39.175Z,22.78
2022-10-17T10:03:15.154Z,22.28
2022-10-17T10:06:05.292Z,21.94
2022-10-17T10:08:38.439Z,21.83
2022-10-17T10:11:13.764Z,22.02
2022-10-17T10:13:44.818Z,22.44
2022-10-17T10:16:24.485Z,23.08
2022-10-17T10:18:54.857Z,23.09
2022-10-17T10:21:27.569Z,22.94
2022-10-17T10:24:13.037Z,22.78
2022-10-17T10:26:46.594Z,22.55
2022-10-17T10:29:37.406Z,22.38
2022-10-17T10:32:28.791Z,22.45
2022-10-17T10:35:05.173Z,22.20
2022-10-17T10:37:41.543Z,22.22
2022-10-17T10:40:30.069Z,22.45
2022-10-17T10:43:05.476Z,22.69
2022-10-17T10:45:48.315Z,22.64
2022-10-17T10:48:21.817Z,22.69
2022-10-17T10:50:55.279Z,22.71
2022-10-17T10:53:35.542Z,22.80
2022-10-17T10:56:21.394Z,23.03
2022-10-17T10:59:09.221Z,23.26
2022-10-17T11:01:48.312Z,23.98
2022-10-17T11:04:30.797Z,24.50
2022-10-17T11:07:07.021Z,24.67
2022-10-17T11:10:09.071Z,24.29
2022-10-17T11:13:01.973Z,24.00
2022-10-17T11:15:50.696Z,24.28
2022-10-17T11:18:33.009Z,24.90
2022-10-17T11:21:17.838Z,25.41
2022-10-17T11:23:53.798Z,26.44
2022-10-17T11:26:27.224Z,26.70
2022-10-17T11:29:00.293Z,25.80
2022-10-17T11:31:36.832Z,25.80
2022-10-17T11:34:10.273Z,25.83
2022-10-17T11:36:43.741Z,25.85
2022-10-17T11:39:23.188Z,26.68
2022-10-17T11:41:58.853Z,27.30
2022-10-17T11:44:35.458Z,27.93
2022-10-17T11:47:32.144Z,27.69
2022-10-17T11:52:55.935Z,26.80
2022-10-17T11:55:21.637Z,25.92
2022-10-17T11:58:22.371Z,25.68
2022-10-17T12:01:10.849Z,25.15
2022-10-17T12:03:53.380Z,25.34
2022-10-17T12:06:47.683Z,25.12
2022-10-17T12:09:21.090Z,25.12
2022-10-17T12:11:54.550Z,24.88
2022-10-17T12:14:46.464Z,24.61
2022-10-17T12:17:25.684Z,24.52
2022-10-17T12:20:15.799Z,24.48
2022-10-17T12:22:51.436Z,24.26
2022-10-17T12:25:26.118Z,24.31
2022-10-17T12:28:10.898Z,24.16
2022-10-17T12:30:52.787Z,23.93
2022-10-17T12:33:32.293Z,24.10
2022-10-17T12:36:29.607Z,24.10
2022-10-17T12:39:07.875Z,24.14
2022-10-17T12:41:45.982Z,24.19
2022-10-17T12:44:22.267Z,24.14
2022-10-17T12:47:11.181Z,24.08
2022-10-17T12:49:46.787Z,24.12
2022-10-17T12:52:36.644Z,24.06
2022-10-17T12:55:14.061Z,24.15
2022-10-17T12:58:08.282Z,24.32
2022-10-17T13:01:05.153Z,24.44
2022-10-17T13:03:25.151Z,24.32
2022-10-17T13:05:58.372Z,24.27
2022-10-17T13:08:40.526Z,24.30
2022-10-17T13:11:11.736Z,24.06
2022-10-17T13:13:48.821Z,24.27
2022-10-17T13:16:39.925Z,24.10
2022-10-17T13:19:19.245Z,24.24
2022-10-17T13:22:07.036Z,24.30
2022-10-17T13:24:39.207Z,24.18
2022-10-17T13:27:24.910Z,24.22
2022-10-17T13:29:56.538Z,24.28
2022-10-17T13:32:29.522Z,24.23
2022-10-17T13:35:13.034Z,24.30
2022-10-17T13:37:47.370Z,24.48
2022-10-17T13:40:49.621Z,24.42
2022-10-17T13:43:02.094Z,24.32
2022-10-17T13:45:35.286Z,24.28
2022-10-17T13:48:10.213Z,24.26
2022-10-17T13:50:44.858Z,24.17
2022-10-17T13:53:34.005Z,24.06
2022-10-17T13:56:29.792Z,23.90
2022-10-17T13:59:05.121Z,23.92
2022-10-17T14:01:35.893Z,24.13
2022-10-17T14:04:17.102Z,23.91
2022-10-17T14:06:46.402Z,24.02
2022-10-17T14:09:32.797Z,23.94
2022-10-17T14:12:14.977Z,23.89
2022-10-17T14:15:09.876Z,23.83
2022-10-17T14:17:27.348Z,23.80
2022-10-17T14:22:38.229Z,23.89
2022-10-17T14:25:28.586Z,23.62
2022-10-17T14:28:06.471Z,23.67
2022-10-17T14:33:17.756Z,23.69
2022-10-17T14:35:53.027Z,23.50
2022-10-17T14:38:24.004Z,23.64
2022-10-17T14:41:37.772Z,23.52
2022-10-17T14:43:35.386Z,23.39
2022-10-17T14:46:06.115Z,23.46
2022-10-17T14:48:37.085Z,23.33
2022-10-17T14:51:16.312Z,23.35
2022-10-17T14:54:05.308Z,23.04
2022-10-17T14:56:44.040Z,22.96
2022-10-17T14:59:30.125Z,22.84
2022-10-17T15:01:48.065Z,22.87
2022-10-17T15:04:18.932Z,22.86
2022-10-17T15:06:52.386Z,22.78
2022-10-17T15:09:23.753Z,22.66
2022-10-17T15:11:54.174Z,22.54
2022-10-17T15:14:24.826Z,22.48
2022-10-17T15:16:55.255Z,22.52
2022-10-17T15:19:25.614Z,22.33
2022-10-17T15:21:55.995Z,22.38
2022-10-17T15:24:26.503Z,22.24
2022-10-17T15:26:56.909Z,22.20
2022-10-17T15:29:28.253Z,22.16
2022-10-17T15:31:58.672Z,22.12
2022-10-17T15:34:29.026Z,22.08
2022-10-17T15:36:59.484Z,21.96
2022-10-17T15:39:30.184Z,21.99
2022-10-17T15:42:00.925Z,21.95
2022-10-17T15:44:31.597Z,21.96
2022-10-17T15:47:03.105Z,21.84
2022-10-17T15:49:34.736Z,21.66
2022-10-17T15:52:05.772Z,21.54
2022-10-17T15:54:36.333Z,21.53
2022-10-17T15:57:06.771Z,21.46
2022-10-17T15:59:37.090Z,21.39
2022-10-17T16:02:14.388Z,21.51
2022-10-17T16:04:45.277Z,21.43
2022-10-17T16:07:16.131Z,21.29
2022-10-17T16:09:49.314Z,21.40
2022-10-17T16:12:25.714Z,21.25
2022-10-17T16:14:57.251Z,21.22
2022-10-17T16:17:27.879Z,21.12
2022-10-17T16:20:01.194Z,21.16
2022-10-17T16:22:35.947Z,21.18
2022-10-17T16:25:10.043Z,21.15
2022-10-17T16:27:40.921Z,21.18
2022-10-17T16:30:11.461Z,21.03
2022-10-17T16:32:42.440Z,20.93
2022-10-17T16:35:18.536Z,20.86
2022-10-17T16:37:49.265Z,20.78
2022-10-17T16:40:20.258Z,20.92
2022-10-17T16:42:50.605Z,21.04
2022-10-17T16:45:23.467Z,20.85
2022-10-17T16:47:53.860Z,20.90
2022-10-17T16:50:24.508Z,21.00
2022-10-17T16:52:54.934Z,21.01
2022-10-17T16:55:25.530Z,20.88
2022-10-17T16:57:55.933Z,20.80
2022-10-17T17:00:26.735Z,20.79
2022-10-17T17:02:57.189Z,20.82
2022-10-17T17:05:28.217Z,20.72
2022-10-17T17:07:59.910Z,20.74
2022-10-17T17:10:30.275Z,20.72
2022-10-17T17:16:07.939Z,20.49
2022-10-17T17:18:39.040Z,20.50
2022-10-17T17:21:11.321Z,20.48
2022-10-17T17:23:43.375Z,20.44
2022-10-17T17:26:19.215Z,20.40
2022-10-17T17:28:50.818Z,20.38
2022-10-17T17:31:23.891Z,20.37
2022-10-17T17:36:28.594Z,20.14
2022-10-17T17:39:00.759Z,20.18
2022-10-17T17:41:31.682Z,20.06
2022-10-17T17:44:03.462Z,20.02
2022-10-17T17:46:34.180Z,20.04
2022-10-17T17:49:04.918Z,20.05
2022-10-17T17:51:36.943Z,20.03
2022-10-17T17:54:09.081Z,20.07
2022-10-17T17:56:40.565Z,20.14
2022-10-17T17:59:13.465Z,20.06
2022-10-17T18:01:44.518Z,19.98
2022-10-17T18:04:16.533Z,19.98
2022-10-17T18:06:46.922Z,19.97
2022-10-17T18:09:17.241Z,19.88
2022-10-17T18:11:47.542Z,19.79
2022-10-17T18:14:19.097Z,19.82
2022-10-17T18:16:49.464Z,19.72
2022-10-17T18:19:20.195Z,19.59
2022-10-17T18:21:50.696Z,19.48
2022-10-17T18:24:21.065Z,19.64
2022-10-17T18:26:53.259Z,19.39
2022-10-17T18:29:23.722Z,19.32
2022-10-17T18:31:54.333Z,19.28
2022-10-17T18:34:25.151Z,19.25
2022-10-17T18:36:56.073Z,19.17
2022-10-17T18:39:26.670Z,19.22
2022-10-17T18:41:57.366Z,19.11
2022-10-17T18:44:28.218Z,19.00
2022-10-17T18:47:02.959Z,19.04
2022-10-17T18:49:32.809Z,18.96
2022-10-17T18:52:03.177Z,18.86
2022-10-17T18:54:34.624Z,18.81
2022-10-17T18:57:05.226Z,18.80
2022-10-17T18:59:35.770Z,18.70
2022-10-17T19:02:06.665Z,18.61
2022-10-17T19:04:37.388Z,18.55
2022-10-17T19:07:07.821Z,18.50
2022-10-17T19:09:38.286Z,18.44
2022-10-17T19:12:08.596Z,18.43
2022-10-17T19:14:39.486Z,18.41
2022-10-17T19:17:10.004Z,18.37
2022-10-17T19:19:40.681Z,18.33
2022-10-17T19:22:11.117Z,18.28
2022-10-17T19:24:41.672Z,18.23
2022-10-17T19:27:12.287Z,18.14
2022-10-17T19:29:44.082Z,18.12
2022-10-17T19:32:17.918Z,18.08
2022-10-17T19:34:46.572Z,18.04
2022-10-17T19:37:16.929Z,18.02
2022-10-17T19:39:49.050Z,17.97
2022-10-17T19:42:19.549Z,17.92
2022-10-17T19:44:49.951Z,17.89
2022-10-17T19:47:20.338Z,17.84
2022-10-17T19:49:51.045Z,17.82
2022-10-17T19:52:21.391Z,17.76
2022-10-17T19:54:51.711Z,17.74
2022-10-17T19:57:22.109Z,17.72
2022-10-17T19:59:55.835Z,17.69
2022-10-17T20:02:24.741Z,17.70
2022-10-17T20:05:13.780Z,17.68
2022-10-17T20:07:27.143Z,17.66
2022-10-17T20:09:57.397Z,17.69
2022-10-17T20:12:28.357Z,17.68
2022-10-17T20:14:59.066Z,17.66
2022-10-17T20:17:29.728Z,17.63
2022-10-17T20:20:02.440Z,17.60
2022-10-17T20:22:32.631Z,17.54
2022-10-17T20:25:03.165Z,17.50
2022-10-17T20:27:33.586Z,17.51
2022-10-17T20:30:04.639Z,17.48
2022-10-17T20:32:39.524Z,17.42
2022-10-17T20:35:09.644Z,17.38
2022-10-17T20:37:42.668Z,17.36
2022-10-17T20:42:45.163Z,17.32
2022-10-17T20:45:15.450Z,17.29
2022-10-17T20:47:49.193Z,17.27
2022-10-17T20:50:17.947Z,17.25
2022-10-17T20:52:50.633Z,17.24
2022-10-17T20:55:21.163Z,17.18
2022-10-17T20:57:53.931Z,17.19
2022-10-17T21:00:24.309Z,17.12
2022-10-17T21:05:25.160Z,17.05
2022-10-17T21:07:55.523Z,17.04
2022-10-17T21:10:36.065Z,17.05
2022-10-17T21:12:59.538Z,17.03
2022-10-17T21:15:30.203Z,17.02
2022-10-17T21:18:00.489Z,17.00
2022-10-17T21:20:30.914Z,16.99
2022-10-17T21:23:01.220Z,16.94
2022-10-17T21:25:32.368Z,16.88
2022-10-17T21:28:02.652Z,16.90
2022-10-17T21:30:33.008Z,16.87
2022-10-17T21:33:03.379Z,16.85
2022-10-17T21:35:33.787Z,16.82
2022-10-17T21:38:04.537Z,16.79
2022-10-17T21:40:34.858Z,16.78
2022-10-17T21:43:05.232Z,16.74
2022-10-17T21:45:37.178Z,16.74
2022-10-17T21:48:14.743Z,16.72
2022-10-17T21:50:40.964Z,16.68
2022-10-17T21:53:11.253Z,16.79
2022-10-17T21:55:41.647Z,16.72
2022-10-17T21:58:12.126Z,16.72
2022-10-17T22:00:42.567Z,16.75
2022-10-17T22:03:14.633Z,16.77
2022-10-17T22:05:45.906Z,16.78
2022-10-17T22:08:16.202Z,16.81
2022-10-17T22:10:46.605Z,16.84
2022-10-17T22:13:16.977Z,16.89
2022-10-17T22:15:47.293Z,16.92
2022-10-17T22:18:17.732Z,17.00
2022-10-17T22:20:48.132Z,17.02
2022-10-17T22:23:18.744Z,17.12
2022-10-17T22:25:57.263Z,17.19
2022-10-17T22:28:27.790Z,17.20
2022-10-17T22:30:58.115Z,17.21
2022-10-17T22:33:28.429Z,17.24
2022-10-17T22:35:59.188Z,17.24
2022-10-17T22:38:29.722Z,17.23
2022-10-17T22:41:00.287Z,17.22
2022-10-17T22:43:30.956Z,17.21
2022-10-17T22:46:03.780Z,17.24
2022-10-17T22:48:34.665Z,17.25
2022-10-17T22:51:05.174Z,17.28
2022-10-17T22:53:37.313Z,17.26
2022-10-17T22:56:13.607Z,17.27
2022-10-17T22:58:44.373Z,17.25
2022-10-17T23:01:17.871Z,17.25
2022-10-17T23:03:48.758Z,17.26
2022-10-17T23:06:19.594Z,17.26
2022-10-17T23:08:50.256Z,17.25
2022-10-17T23:11:21.042Z,17.22
2022-10-17T23:13:51.597Z,17.22
2022-10-17T23:16:22.079Z,17.21
2022-10-17T23:18:52.542Z,17.20
2022-10-17T23:21:22.909Z,17.21
2022-10-17T23:23:53.292Z,17.22
2022-10-17T23:26:23.674Z,17.24
2022-10-17T23:28:56.819Z,17.23
2022-10-17T23:31:27.274Z,17.24
2022-10-17T23:33:59.044Z,17.24
2022-10-17T23:36:29.602Z,17.24
2022-10-17T23:38:59.858Z,17.25
2022-10-17T23:41:30.334Z,17.28
2022-10-17T23:44:00.655Z,17.30
2022-10-17T23:46:31.363Z,17.28
2022-10-17T23:49:01.821Z,17.32
2022-10-17T23:51:32.497Z,17.35
2022-10-17T23:54:02.889Z,17.40
2022-10-17T23:56:33.296Z,17.39
2022-10-17T23:59:03.749Z,17.43
